Time;durP1;ratioP1;P1;durP2;ratioP2;P2;SDS_P1;SDS_P2;PMS_P1;PMS_P2;Temp;Humidity;BMP_temperature;BMP_pressure;BME280_temperature;BME280_humidity;BME280_pressure;Samples;Min_cycle;Max_cycle;Signal;HPM_P1;HPM_P2
2021/07/08 00:02:07;;;;;;;4.97;1.98;;;;;;;17.49;86.48;101859.50;5036407;28;20059;-77
2021/07/08 00:04:34;;;;;;;5.18;1.60;;;;;;;17.37;87.04;101861.63;5040121;28;20140;-77
2021/07/08 00:07:00;;;;;;;5.95;2.05;;;;;;;17.23;88.14;101852.50;5070715;28;20060;-77
2021/07/08 00:09:26;;;;;;;5.68;1.90;;;;;;;17.07;88.66;101848.00;5056828;28;20094;-76
2021/07/08 00:11:51;;;;;;;6.68;2.13;;;;;;;16.90;89.53;101841.81;5043755;28;20090;-76
2021/07/08 00:14:17;;;;;;;9.68;1.80;;;;;;;16.77;90.64;101852.03;5055201;28;20042;-77
2021/07/08 00:16:42;;;;;;;6.53;1.77;;;;;;;16.66;90.66;101849.66;5038351;28;20481;-76
2021/07/08 00:19:08;;;;;;;2.88;1.88;;;;;;;16.60;90.89;101847.66;5029812;28;20032;-77
2021/07/08 00:21:34;;;;;;;4.63;2.00;;;;;;;16.50;91.71;101853.91;5046749;28;20039;-77
2021/07/08 00:24:00;;;;;;;8.50;2.05;;;;;;;16.50;91.79;101850.41;5040526;28;20055;-77
2021/07/08 00:26:25;;;;;;;4.07;1.95;;;;;;;16.45;91.72;101852.72;5035889;28;20032;-77
2021/07/08 00:28:52;;;;;;;4.72;2.08;;;;;;;16.39;92.28;101851.53;5055180;28;20550;-76
2021/07/08 00:31:18;;;;;;;5.68;1.90;;;;;;;16.41;92.34;101848.72;5066935;28;20121;-76
2021/07/08 00:33:46;;;;;;;5.05;2.28;;;;;;;16.40;92.47;101845.22;5043243;28;20040;-76
2021/07/08 00:36:12;;;;;;;5.97;1.70;;;;;;;16.33;92.78;101850.34;5038215;28;20070;-77
2021/07/08 00:38:38;;;;;;;3.58;1.85;;;;;;;16.23;93.02;101852.25;5034066;28;20036;-75
2021/07/08 00:41:03;;;;;;;7.50;2.03;;;;;;;16.11;94.34;101850.88;5029854;28;20031;-76
2021/07/08 00:43:31;;;;;;;4.07;2.00;;;;;;;16.06;95.06;101853.16;5025148;28;20028;-75
2021/07/08 00:45:57;;;;;;;6.07;2.08;;;;;;;15.98;95.72;101850.47;5051969;28;20035;-74
2021/07/08 00:48:23;;;;;;;10.68;2.22;;;;;;;15.98;95.78;101853.09;5055876;28;20047;-76
2021/07/08 00:50:49;;;;;;;8.95;2.35;;;;;;;15.93;96.58;101848.25;5053670;28;20042;-77
2021/07/08 00:53:16;;;;;;;12.82;2.63;;;;;;;15.88;97.72;101847.88;5036410;28;20036;-77
2021/07/08 00:55:47;;;;;;;7.10;2.17;;;;;;;15.91;97.07;101847.59;5036392;28;20040;-77
2021/07/08 00:58:17;;;;;;;3.40;2.00;;;;;;;16.02;96.70;101847.34;5062916;28;20035;-78
2021/07/08 01:00:47;;;;;;;6.30;2.20;;;;;;;16.07;96.61;101857.47;5058546;28;20038;-75
2021/07/08 01:03:13;;;;;;;5.25;2.00;;;;;;;16.07;95.39;101860.94;5056564;28;20412;-77
2021/07/08 01:05:47;;;;;;;5.10;1.63;;;;;;;16.08;95.49;101856.47;5052038;28;20071;-75
2021/07/08 01:08:13;;;;;;;3.70;2.13;;;;;;;16.12;95.93;101869.25;5049369;28;20119;-77
2021/07/08 01:10:40;;;;;;;4.95;2.00;;;;;;;16.15;96.10;101857.50;5055250;28;20031;-76
2021/07/08 01:13:06;;;;;;;4.43;2.40;;;;;;;16.21;95.84;101871.94;5026945;28;20650;-78
2021/07/08 01:15:33;;;;;;;5.30;2.17;;;;;;;16.20;95.73;101867.63;5071059;28;20074;-78
2021/07/08 01:17:58;;;;;;;8.98;2.40;;;;;;;16.18;95.75;101869.59;5040750;28;20044;-76
2021/07/08 01:20:27;;;;;;;6.90;2.00;;;;;;;16.18;95.12;101866.94;5066028;28;20036;-77
2021/07/08 01:22:59;;;;;;;5.13;2.35;;;;;;;16.15;95.44;101868.09;5038896;28;20401;-77
2021/07/08 01:25:29;;;;;;;6.75;2.45;;;;;;;16.17;95.18;101874.06;5052392;28;20028;-75
2021/07/08 01:27:55;;;;;;;4.65;2.20;;;;;;;16.17;95.12;101874.06;5036432;28;20113;-76
2021/07/08 01:30:22;;;;;;;3.83;2.60;;;;;;;16.23;95.00;101875.25;5056058;28;20083;-76
2021/07/08 01:32:48;;;;;;;9.50;3.42;;;;;;;16.20;95.12;101867.63;5048143;28;20098;-75
2021/07/08 01:35:14;;;;;;;6.45;2.70;;;;;;;16.19;95.11;101872.09;5064620;28;20489;-75
2021/07/08 01:37:40;;;;;;;15.05;3.17;;;;;;;16.25;94.50;101874.09;5040834;28;20408;-76
2021/07/08 01:40:08;;;;;;;5.80;3.05;;;;;;;16.26;94.32;101859.06;5052032;28;20111;-76
2021/07/08 01:42:34;;;;;;;6.07;2.28;;;;;;;16.25;94.82;101855.56;5078427;28;20028;-75
2021/07/08 01:45:01;;;;;;;5.70;2.70;;;;;;;16.24;95.32;101853.94;5072857;28;20028;-75
2021/07/08 01:47:27;;;;;;;5.45;2.58;;;;;;;16.20;95.47;101857.03;5052993;28;20485;-77
2021/07/08 01:49:53;;;;;;;6.20;2.60;;;;;;;16.22;95.74;101855.06;5053400;28;20070;-77
2021/07/08 01:52:18;;;;;;;5.63;2.50;;;;;;;16.20;96.17;101857.03;5036149;28;20064;-77
2021/07/08 01:54:44;;;;;;;4.47;2.35;;;;;;;16.11;95.83;101849.06;5042279;28;20025;-75
2021/07/08 01:57:09;;;;;;;7.50;2.85;;;;;;;16.07;96.38;101860.13;5036323;28;20126;-76
2021/07/08 01:59:35;;;;;;;6.75;2.83;;;;;;;15.99;96.52;101852.94;5050040;28;20083;-75
2021/07/08 02:02:01;;;;;;;7.57;2.78;;;;;;;15.90;96.89;101844.13;5051865;28;20036;-75
2021/07/08 02:04:26;;;;;;;4.35;2.78;;;;;;;15.86;97.29;101852.50;5036717;28;20062;-76
2021/07/08 02:06:52;;;;;;;5.57;2.42;;;;;;;15.83;97.34;101845.72;5086077;28;20028;-77
2021/07/08 02:09:18;;;;;;;8.07;2.88;;;;;;;15.84;97.47;101834.16;5053057;28;20036;-74
2021/07/08 02:11:43;;;;;;;7.53;2.60;;;;;;;15.79;97.65;101838.25;5020954;28;20044;-74
2021/07/08 02:14:09;;;;;;;6.72;2.80;;;;;;;15.79;98.08;101848.84;5040538;28;20036;-76
2021/07/08 02:16:35;;;;;;;8.20;3.30;;;;;;;15.80;98.73;101853.94;5053984;28;20535;-77
2021/07/08 02:19:03;;;;;;;3.60;2.92;;;;;;;15.81;99.23;101842.41;5048483;28;20028;-76
2021/07/08 02:21:29;;;;;;;5.45;3.00;;;;;;;15.91;98.71;101853.69;5070515;28;20028;-75
2021/07/08 02:23:54;;;;;;;5.20;3.13;;;;;;;15.99;98.51;101852.09;5047320;28;20405;-75
2021/07/08 02:26:20;;;;;;;7.57;2.75;;;;;;;15.98;98.11;101853.09;5061530;28;20085;-76
2021/07/08 02:28:45;;;;;;;7.88;3.25;;;;;;;16.14;98.43;101854.03;5073229;28;20101;-76
2021/07/08 02:31:11;;;;;;;7.72;2.90;;;;;;;16.28;97.90;101849.16;5032870;28;20028;-77
2021/07/08 02:33:37;;;;;;;7.45;3.05;;;;;;;16.28;98.01;101841.22;5030369;28;20089;-78
2021/07/08 02:36:04;;;;;;;6.95;2.80;;;;;;;16.26;97.74;101840.53;5037738;28;20185;-76
2021/07/08 02:38:30;;;;;;;5.90;3.00;;;;;;;16.27;97.62;101844.84;5053971;28;20020;-74
2021/07/08 02:40:55;;;;;;;4.10;2.80;;;;;;;16.29;97.41;101849.00;5039207;28;20039;-76
2021/07/08 02:43:21;;;;;;;7.65;2.88;;;;;;;16.44;96.65;101848.41;5054435;28;20446;-75
2021/07/08 02:45:47;;;;;;;5.85;3.00;;;;;;;16.49;96.60;101843.47;5069526;28;20046;-76
2021/07/08 02:48:15;;;;;;;4.50;2.75;;;;;;;16.55;96.39;101840.16;5042884;28;20113;-76
2021/07/08 02:50:42;;;;;;;5.03;2.53;;;;;;;16.61;96.46;101844.81;5052875;28;20036;-74
2021/07/08 02:53:09;;;;;;;7.93;3.17;;;;;;;16.61;96.38;101836.88;5052691;28;20036;-76
2021/07/08 02:55:34;;;;;;;5.30;3.00;;;;;;;16.55;96.46;101854.25;5052770;28;20516;-75
2021/07/08 02:58:00;;;;;;;10.85;2.75;;;;;;;16.60;96.35;101850.31;5094040;28;20035;-77
2021/07/08 03:00:29;;;;;;;5.70;2.92;;;;;;;16.62;96.28;101848.31;5051444;28;20516;-74
2021/07/08 03:02:57;;;;;;;4.55;2.72;;;;;;;16.61;96.30;101836.06;5050924;28;20028;-76
2021/07/08 03:05:23;;;;;;;4.45;2.88;;;;;;;16.65;96.55;101832.94;5034372;28;20123;-75
2021/07/08 03:07:50;;;;;;;4.13;2.53;;;;;;;16.59;96.41;101830.09;5075068;28;20449;-76
2021/07/08 03:10:18;;;;;;;5.93;2.90;;;;;;;16.65;96.18;101829.44;5055312;28;20535;-76
2021/07/08 03:12:44;;;;;;;3.97;2.75;;;;;;;16.57;96.33;101834.72;5034306;28;20035;-76
2021/07/08 03:15:11;;;;;;;5.55;3.40;;;;;;;16.60;96.41;101839.72;5049180;28;20143;-76
2021/07/08 03:17:38;;;;;;;7.18;3.20;;;;;;;16.71;96.31;101853.50;5039163;28;20066;-76
2021/07/08 03:20:06;;;;;;;6.22;2.92;;;;;;;16.78;95.52;101843.06;5035584;28;20124;-75
2021/07/08 03:22:32;;;;;;;6.68;3.28;;;;;;;16.83;95.07;101835.50;5053686;28;20035;-76
2021/07/08 03:24:57;;;;;;;8.45;3.95;;;;;;;16.82;95.53;101841.81;5073908;28;21447;-76
2021/07/08 03:27:23;;;;;;;6.65;2.92;;;;;;;16.78;95.11;101837.78;5055533;28;20031;-76
2021/07/08 03:29:48;;;;;;;5.80;3.08;;;;;;;16.75;95.97;101848.72;5072153;28;20031;-76
2021/07/08 03:32:14;;;;;;;9.30;2.97;;;;;;;16.73;96.24;101845.38;5035566;28;20036;-76
2021/07/08 03:34:40;;;;;;;8.27;3.28;;;;;;;16.79;96.21;101852.69;5038205;28;20032;-75
2021/07/08 03:37:06;;;;;;;5.88;3.53;;;;;;;16.73;96.53;101846.22;5040827;28;20032;-76
2021/07/08 03:39:32;;;;;;;5.30;3.35;;;;;;;16.70;96.84;101854.47;5071189;28;20040;-76
2021/07/08 03:41:58;;;;;;;7.85;3.20;;;;;;;16.70;96.81;101857.13;5040040;28;20055;-76
2021/07/08 03:44:23;;;;;;;8.70;3.67;;;;;;;16.74;96.93;101863.78;5051118;28;20056;-75
2021/07/08 03:46:49;;;;;;;5.38;3.35;;;;;;;16.76;96.74;101857.47;5057198;28;20055;-75
2021/07/08 03:49:15;;;;;;;8.45;3.38;;;;;;;16.76;96.84;101857.47;5071569;28;20028;-76
2021/07/08 03:51:40;;;;;;;7.93;3.28;;;;;;;16.83;97.30;101866.47;5055900;28;20032;-75
2021/07/08 03:54:06;;;;;;;3.78;2.88;;;;;;;16.83;96.70;101864.66;5071601;28;20724;-77
2021/07/08 03:56:32;;;;;;;10.02;4.05;;;;;;;16.92;95.83;101869.00;5041924;28;20036;-77
2021/07/08 03:58:57;;;;;;;7.32;3.72;;;;;;;16.96;96.29;101880.09;5056843;28;20050;-77
2021/07/08 04:01:23;;;;;;;6.05;3.30;;;;;;;16.97;95.88;101875.63;5039808;28;20424;-77
2021/07/08 04:03:48;;;;;;;5.28;3.50;;;;;;;17.04;94.91;101877.47;5042097;28;20123;-78
2021/07/08 04:06:14;;;;;;;9.70;4.00;;;;;;;17.09;94.59;101877.00;5042615;28;20084;-77
2021/07/08 04:08:39;;;;;;;6.68;3.97;;;;;;;17.10;94.25;101870.69;5056239;28;20039;-77
2021/07/08 04:11:05;;;;;;;9.30;3.78;;;;;;;17.12;93.83;101874.84;5038634;28;20425;-77
2021/07/08 04:13:31;;;;;;;11.77;3.60;;;;;;;17.10;93.79;101876.84;5070760;28;20047;-76
2021/07/08 04:15:56;;;;;;;7.40;4.03;;;;;;;17.11;94.51;101899.69;5034057;28;20107;-75
2021/07/08 04:18:22;;;;;;;8.43;4.03;;;;;;;17.14;93.95;101893.25;5041467;28;20040;-77
2021/07/08 04:20:48;;;;;;;8.57;4.22;;;;;;;17.20;94.50;101903.19;5056028;28;20043;-76
2021/07/08 04:23:15;;;;;;;7.22;4.53;;;;;;;17.23;94.61;101902.03;5068671;28;20108;-77
2021/07/08 04:25:41;;;;;;;12.23;3.92;;;;;;;17.32;94.90;101903.72;5040251;28;20389;-75
2021/07/08 04:28:09;;;;;;;10.07;4.22;;;;;;;17.32;94.61;101901.88;5062240;28;20041;-77
2021/07/08 04:30:36;;;;;;;6.60;4.10;;;;;;;17.39;93.62;101904.72;5041141;28;20534;-76
2021/07/08 04:33:02;;;;;;;7.63;4.05;;;;;;;17.44;93.79;101912.19;5071917;28;20028;-75
2021/07/08 04:35:30;;;;;;;8.70;3.97;;;;;;;17.44;94.12;101901.56;5053362;28;20039;-75
2021/07/08 04:37:57;;;;;;;10.57;3.75;;;;;;;17.41;93.78;101904.56;5058589;28;20059;-76
2021/07/08 04:40:23;;;;;;;9.85;3.90;;;;;;;17.38;93.56;101903.06;5037648;28;20104;-76
2021/07/08 04:42:49;;;;;;;3.88;3.47;;;;;;;17.41;94.43;101907.22;5059835;28;20453;-76
2021/07/08 04:45:15;;;;;;;7.88;4.32;;;;;;;17.40;95.38;101910.84;5052140;28;20040;-77
2021/07/08 04:47:42;;;;;;;8.15;4.10;;;;;;;17.34;95.77;101912.34;5038636;28;20070;-77
2021/07/08 04:50:10;;;;;;;6.72;3.70;;;;;;;17.45;93.89;101924.47;5041879;28;20028;-76
2021/07/08 04:52:37;;;;;;;14.65;4.50;;;;;;;17.52;92.41;101934.25;5046857;28;20039;-78
2021/07/08 04:55:05;;;;;;;5.57;4.10;;;;;;;17.59;92.83;101928.28;5074342;28;20050;-79
2021/07/08 04:57:30;;;;;;;5.57;4.00;;;;;;;17.64;93.51;101928.63;5047882;28;20028;-76
2021/07/08 04:59:56;;;;;;;6.35;3.88;;;;;;;17.65;93.67;101948.84;5078930;28;20023;-76
2021/07/08 05:02:21;;;;;;;8.63;4.05;;;;;;;17.68;94.06;101945.88;5054926;28;20040;-76
2021/07/08 05:04:47;;;;;;;10.05;4.40;;;;;;;17.65;93.11;101920.53;5049935;28;20039;-78
2021/07/08 05:07:13;;;;;;;7.90;4.05;;;;;;;17.61;92.85;101919.19;5044884;28;20044;-77
2021/07/08 05:09:39;;;;;;;7.03;4.43;;;;;;;17.60;92.72;101922.00;5040273;28;20047;-78
2021/07/08 05:12:06;;;;;;;9.77;4.70;;;;;;;17.56;92.30;101918.84;5061190;28;20024;-77
2021/07/08 05:14:31;;;;;;;7.25;4.22;;;;;;;17.50;91.85;101923.00;5035629;28;20042;-76
2021/07/08 05:16:57;;;;;;;5.15;3.92;;;;;;;17.55;92.98;101921.66;5060907;28;20036;-79
2021/07/08 05:19:22;;;;;;;7.72;4.32;;;;;;;17.54;93.05;101935.91;5047676;28;20035;-79
2021/07/08 05:21:51;;;;;;;7.72;4.57;;;;;;;17.51;92.92;101931.78;5042700;28;20036;-76
2021/07/08 05:24:20;;;;;;;7.93;4.40;;;;;;;17.50;92.44;101923.00;5059777;28;20024;-77
2021/07/08 05:26:46;;;;;;;9.90;4.38;;;;;;;17.60;92.66;101932.63;5035135;28;20096;-78
2021/07/08 05:29:12;;;;;;;8.18;4.18;;;;;;;17.61;93.32;101929.81;5045411;28;20212;-78
2021/07/08 05:31:38;;;;;;;5.65;3.60;;;;;;;17.63;93.33;101927.81;5038944;28;20139;-78
2021/07/08 05:34:03;;;;;;;5.82;3.97;;;;;;;17.71;92.71;101932.31;5045923;28;20035;-77
2021/07/08 05:36:29;;;;;;;13.02;4.20;;;;;;;17.77;92.58;101926.31;5058370;28;20397;-76
2021/07/08 05:38:54;;;;;;;7.68;4.22;;;;;;;17.75;92.54;101920.34;5044950;28;20039;-79
2021/07/08 05:41:20;;;;;;;8.07;4.20;;;;;;;17.86;92.10;101924.53;5056004;28;20359;-77
2021/07/08 05:43:46;;;;;;;5.63;4.20;;;;;;;17.92;91.48;101920.41;5075912;28;20035;-77
2021/07/08 05:46:11;;;;;;;10.07;3.78;;;;;;;17.92;91.23;101931.84;5047021;28;20039;-77
2021/07/08 05:48:37;;;;;;;12.02;4.47;;;;;;;18.00;91.43;101929.16;5051992;28;20039;-77
2021/07/08 05:51:03;;;;;;;8.88;4.10;;;;;;;18.17;90.92;101939.78;5046054;28;20374;-77
2021/07/08 05:53:29;;;;;;;7.90;4.45;;;;;;;18.17;90.40;101945.91;5036122;28;20071;-76
2021/07/08 05:55:54;;;;;;;6.93;3.80;;;;;;;18.21;89.89;101949.91;5045504;28;20036;-78
2021/07/08 05:58:20;;;;;;;9.15;3.80;;;;;;;18.24;90.70;101946.91;5059886;28;20039;-79
2021/07/08 06:00:48;;;;;;;7.65;4.20;;;;;;;18.27;90.74;101938.63;5068746;28;20052;-78
2021/07/08 06:03:15;;;;;;;5.63;3.92;;;;;;;18.32;89.51;101942.59;5063540;28;21352;-79
2021/07/08 06:05:41;;;;;;;7.25;4.28;;;;;;;18.40;89.36;101939.91;5063040;28;20038;-78
2021/07/08 06:08:06;;;;;;;6.85;4.32;;;;;;;18.42;90.59;101936.09;5064162;28;20031;-79
2021/07/08 06:10:32;;;;;;;7.15;4.60;;;;;;;18.45;88.62;101932.28;5042921;28;20051;-78
2021/07/08 06:12:57;;;;;;;5.13;4.10;;;;;;;18.46;87.89;101945.38;5035994;28;20032;-77
2021/07/08 06:15:24;;;;;;;6.53;4.30;;;;;;;18.46;88.26;101941.91;5043442;28;20559;-74
2021/07/08 06:17:49;;;;;;;11.73;4.85;;;;;;;18.53;87.32;101942.88;5075109;28;20090;-76
2021/07/08 06:20:15;;;;;;;8.77;4.38;;;;;;;18.71;88.49;101950.63;5074229;28;20220;-77
2021/07/08 06:22:41;;;;;;;8.35;4.43;;;;;;;18.86;87.53;101951.59;5036620;28;20050;-77
2021/07/08 06:25:07;;;;;;;8.88;4.45;;;;;;;19.02;84.98;101948.06;5060485;28;20036;-77
2021/07/08 06:27:33;;;;;;;7.82;4.43;;;;;;;19.12;83.79;101954.97;5061003;28;20792;-78
2021/07/08 06:29:59;;;;;;;9.05;4.18;;;;;;;19.14;85.32;101967.13;5061107;28;20032;-77
2021/07/08 06:32:24;;;;;;;6.13;4.10;;;;;;;19.13;84.92;101973.44;5047285;28;20043;-77
2021/07/08 06:34:50;;;;;;;9.52;3.92;;;;;;;19.10;84.67;101967.63;5050043;28;20069;-78
2021/07/08 06:37:16;;;;;;;9.73;4.60;;;;;;;18.96;84.79;101971.84;5045823;28;20047;-77
2021/07/08 06:39:43;;;;;;;13.35;4.05;;;;;;;18.98;85.00;101978.63;5058116;28;20033;-78
2021/07/08 06:42:11;;;;;;;7.10;4.10;;;;;;;19.08;85.64;101978.47;5040313;28;20055;-76
2021/07/08 06:44:37;;;;;;;9.05;3.80;;;;;;;19.12;84.84;101969.13;5047177;28;20051;-78
2021/07/08 06:47:03;;;;;;;10.43;4.32;;;;;;;19.10;84.04;101983.59;5065828;28;20020;-76
2021/07/08 06:49:30;;;;;;;6.28;3.75;;;;;;;19.10;85.80;101987.09;5044183;28;20030;-76
2021/07/08 06:51:56;;;;;;;9.35;3.85;;;;;;;19.06;85.23;101991.06;5045161;28;20059;-77
2021/07/08 06:54:22;;;;;;;5.40;3.80;;;;;;;19.05;85.79;102000.88;5061591;28;20110;-77
2021/07/08 06:56:47;;;;;;;4.45;3.80;;;;;;;19.06;85.59;101999.06;5047518;28;20587;-78
2021/07/08 06:59:13;;;;;;;8.75;4.40;;;;;;;19.12;87.30;102000.19;5081538;28;20032;-78
2021/07/08 07:01:39;;;;;;;5.65;3.95;;;;;;;19.30;86.15;101994.66;5054582;28;20039;-78
2021/07/08 07:04:04;;;;;;;6.82;3.90;;;;;;;19.45;84.41;101990.22;5051547;28;20095;-77
2021/07/08 07:06:30;;;;;;;9.18;3.40;;;;;;;19.59;82.21;101996.63;5068102;28;20028;-77
2021/07/08 07:08:56;;;;;;;5.95;3.25;;;;;;;19.72;82.70;101991.63;5067181;28;20028;-78
2021/07/08 07:11:22;;;;;;;9.75;4.07;;;;;;;19.88;81.22;101988.00;5046927;28;20032;-78
2021/07/08 07:13:48;;;;;;;9.55;4.05;;;;;;;19.94;80.17;101986.44;5067652;28;20039;-76
2021/07/08 07:16:13;;;;;;;5.68;3.55;;;;;;;20.19;78.12;102000.38;5047758;28;20062;-76
2021/07/08 07:18:39;;;;;;;6.20;3.88;;;;;;;20.35;78.52;101994.09;5051279;28;20055;-75
2021/07/08 07:21:10;;;;;;;8.48;3.83;;;;;;;20.35;77.59;101991.44;5049327;28;20064;-74
2021/07/08 07:23:37;;;;;;;8.90;4.30;;;;;;;20.32;77.60;101994.44;5042246;28;20048;-75
2021/07/08 07:26:03;;;;;;;7.40;4.22;;;;;;;20.34;78.00;101989.78;5039741;28;20510;-77
2021/07/08 07:28:28;;;;;;;6.88;3.30;;;;;;;20.29;77.13;101992.16;5035898;28;20029;-78
2021/07/08 07:30:54;;;;;;;6.88;3.88;;;;;;;20.29;79.53;101986.84;5047638;28;20031;-77
2021/07/08 07:33:20;;;;;;;10.88;3.88;;;;;;;20.35;79.71;101999.44;5067924;28;20051;-78
2021/07/08 07:35:45;;;;;;;6.10;3.60;;;;;;;20.40;77.30;102007.72;5097837;28;20039;-78
2021/07/08 07:38:11;;;;;;;7.25;3.42;;;;;;;20.56;76.81;102002.22;5049509;28;20043;-78
2021/07/08 07:40:41;;;;;;;6.00;3.63;;;;;;;20.78;76.26;102003.19;5067453;28;20035;-77
2021/07/08 07:43:07;;;;;;;11.15;3.90;;;;;;;20.76;76.59;101994.53;5045908;28;20070;-78
2021/07/08 07:45:33;;;;;;;9.65;3.70;;;;;;;20.85;76.87;101989.97;5065102;28;20024;-76
2021/07/08 07:47:58;;;;;;;6.50;3.45;;;;;;;20.88;76.88;101991.41;5084480;28;20062;-77
2021/07/08 07:50:25;;;;;;;7.43;3.60;;;;;;;20.91;76.94;101996.41;5045112;28;20064;-78
2021/07/08 07:52:55;;;;;;;9.15;3.35;;;;;;;20.95;77.34;102000.34;5048892;28;20028;-77
2021/07/08 07:55:21;;;;;;;5.97;3.35;;;;;;;21.10;75.08;101998.47;5046763;28;20032;-77
2021/07/08 07:57:47;;;;;;;7.28;3.30;;;;;;;21.12;73.93;101990.31;5066746;28;20032;-76
2021/07/08 08:00:13;;;;;;;5.00;3.30;;;;;;;21.09;74.37;101985.31;5067778;28;20032;-77
2021/07/08 08:02:39;;;;;;;10.18;3.60;;;;;;;21.11;74.33;101988.63;5076003;28;20132;-78
2021/07/08 08:05:19;;;;;;;6.78;3.13;;;;;;;21.19;74.78;101994.69;5046924;28;20439;-77
2021/07/08 08:10:29;;;;;;;5.40;2.85;;;;;;;21.41;74.13;101989.41;5063059;28;20036;-77
2021/07/08 08:12:55;;;;;;;7.13;3.40;;;;;;;21.53;74.44;102003.09;5049053;28;20393;-78
2021/07/08 08:15:21;;;;;;;9.15;3.05;;;;;;;21.56;74.61;102000.06;5050928;28;20028;-77
2021/07/08 08:17:47;;;;;;;10.05;3.28;;;;;;;21.55;73.41;102001.09;5092532;28;20032;-76
2021/07/08 08:20:16;;;;;;;10.07;2.92;;;;;;;21.58;75.48;102006.84;5066067;28;20039;-78
2021/07/08 08:22:42;;;;;;;5.63;2.80;;;;;;;21.64;73.99;102013.28;5061091;28;20036;-77
2021/07/08 08:25:11;;;;;;;10.25;2.95;;;;;;;21.73;73.55;102006.81;5051632;28;20430;-77
2021/07/08 08:27:37;;;;;;;6.47;2.72;;;;;;;21.91;73.62;102009.06;5060006;28;20040;-77
2021/07/08 08:30:08;;;;;;;6.78;3.13;;;;;;;22.28;71.33;102007.16;5061678;28;20062;-77
2021/07/08 08:32:34;;;;;;;9.13;2.83;;;;;;;22.71;70.41;102019.56;5061010;28;20036;-77
2021/07/08 08:34:59;;;;;;;5.93;3.10;;;;;;;22.97;69.63;102018.91;5050881;28;20520;-78
2021/07/08 08:37:25;;;;;;;7.53;3.03;;;;;;;23.13;66.93;102012.41;5057623;28;20063;-78
2021/07/08 08:39:50;;;;;;;5.88;2.83;;;;;;;23.22;68.68;102008.53;5045863;28;20113;-78
2021/07/08 08:42:16;;;;;;;4.72;2.47;;;;;;;23.40;67.14;102008.00;5042397;28;20115;-77
2021/07/08 08:44:42;;;;;;;7.25;2.35;;;;;;;23.34;66.61;102011.47;5044270;28;20036;-78
2021/07/08 08:47:10;;;;;;;5.57;2.13;;;;;;;23.41;64.19;102020.34;5038807;28;20020;-77
2021/07/08 08:49:41;;;;;;;7.40;2.13;;;;;;;23.48;63.97;102017.69;5042723;28;20032;-77
2021/07/08 08:52:08;;;;;;;5.40;2.30;;;;;;;23.60;61.88;102026.81;5067064;28;20377;-78
2021/07/08 08:54:35;;;;;;;5.00;2.40;;;;;;;23.62;63.07;102021.22;5063674;28;20040;-76
2021/07/08 08:57:01;;;;;;;7.45;2.50;;;;;;;23.62;64.56;102021.22;5054820;28;20040;-77
2021/07/08 08:59:27;;;;;;;3.13;1.90;;;;;;;23.58;64.53;102020.78;5063262;28;20031;-78
2021/07/08 09:02:17;;;;;;;5.80;2.17;;;;;;;23.51;65.44;102025.34;5062391;28;20032;-77
2021/07/08 09:04:44;;;;;;;6.72;2.35;;;;;;;23.38;64.31;102018.06;5060575;28;20635;-78
2021/07/08 09:07:27;;;;;;;9.40;2.55;;;;;;;23.34;64.14;102016.84;5060260;28;20083;-77
2021/07/08 09:10:00;;;;;;;6.82;1.90;;;;;;;23.08;63.78;102015.69;5072514;28;20084;-79
2021/07/08 09:12:26;;;;;;;6.95;2.25;;;;;;;22.98;62.47;102009.88;5048461;28;20030;-77
2021/07/08 09:15:12;;;;;;;7.07;2.22;;;;;;;23.08;62.73;102014.88;5043822;28;20536;-77
2021/07/08 09:17:43;;;;;;;4.07;1.98;;;;;;;23.06;64.34;102015.06;5063872;28;20088;-77
2021/07/08 09:20:15;;;;;;;5.75;2.58;;;;;;;22.85;65.20;102018.63;5040314;28;20031;-76
2021/07/08 09:22:41;;;;;;;2.75;1.90;;;;;;;22.91;65.20;102025.03;5060723;28;20126;-78
2021/07/08 09:25:18;;;;;;;7.40;2.35;;;;;;;22.91;65.89;102028.53;5063706;28;20035;-77
2021/07/08 09:27:45;;;;;;;7.93;2.40;;;;;;;22.91;65.86;102015.16;5045624;28;20031;-78
2021/07/08 09:30:26;;;;;;;8.50;2.17;;;;;;;23.06;68.56;102016.94;5060495;28;20060;-77
2021/07/08 09:32:52;;;;;;;7.27;2.20;;;;;;;23.04;67.69;102014.44;5040952;28;20615;-78
2021/07/08 09:35:32;;;;;;;5.35;2.35;;;;;;;23.18;68.03;102009.97;5062311;28;20063;-78
2021/07/08 09:38:08;;;;;;;9.52;2.63;;;;;;;23.63;66.25;102018.34;5065480;28;20024;-77
2021/07/08 09:40:34;;;;;;;6.18;2.30;;;;;;;23.77;65.93;102029.09;5063226;28;20416;-78
2021/07/08 09:43:00;;;;;;;7.68;1.90;;;;;;;23.87;65.80;102033.06;5082839;28;20057;-78
2021/07/08 09:45:25;;;;;;;5.55;2.05;;;;;;;23.93;62.65;102044.00;5079835;28;20039;-78
2021/07/08 09:47:51;;;;;;;4.20;1.90;;;;;;;23.94;64.11;102046.47;5062629;28;20097;-78
2021/07/08 09:50:26;;;;;;;5.55;2.03;;;;;;;23.78;65.15;102050.31;5063885;28;20040;-77
2021/07/08 09:53:06;;;;;;;4.05;1.70;;;;;;;23.75;63.26;102045.34;5080922;28;20703;-78
2021/07/08 09:58:48;;;;;;;5.45;1.98;;;;;;;23.48;64.15;102036.44;5060799;28;20023;-78
2021/07/08 10:01:14;;;;;;;5.35;1.75;;;;;;;23.41;61.74;102036.41;5047662;28;20063;-75
2021/07/08 10:03:41;;;;;;;5.15;2.10;;;;;;;23.40;64.64;102044.66;5070771;28;20427;-79
2021/07/08 10:06:09;;;;;;;6.18;1.80;;;;;;;23.52;64.19;102043.03;5069532;28;20044;-77
2021/07/08 10:08:36;;;;;;;4.03;1.90;;;;;;;23.56;61.63;102043.47;5078600;28;20032;-76
2021/07/08 10:11:02;;;;;;;9.82;2.00;;;;;;;23.57;63.54;102034.41;5063631;28;20036;-77
2021/07/08 10:13:28;;;;;;;7.85;2.22;;;;;;;23.43;65.25;102028.16;5047482;28;20050;-76
2021/07/08 10:15:55;;;;;;;3.65;1.60;;;;;;;23.43;63.79;102039.72;5084357;28;20033;-77
2021/07/08 10:18:21;;;;;;;3.70;1.83;;;;;;;23.25;67.00;102024.22;5051086;28;20031;-77
2021/07/08 10:20:48;;;;;;;4.05;1.98;;;;;;;23.14;67.14;102032.81;5067200;28;20260;-78
2021/07/08 10:23:15;;;;;;;7.07;2.15;;;;;;;22.93;69.32;102023.81;5046577;28;20101;-78
2021/07/08 10:25:42;;;;;;;5.43;1.50;;;;;;;22.88;67.77;102026.25;5080160;28;20031;-77
2021/07/08 10:28:08;;;;;;;9.88;2.20;;;;;;;22.84;69.07;102021.50;5054521;28;20027;-78
2021/07/08 10:30:35;;;;;;;2.90;1.60;;;;;;;22.92;66.15;102021.34;5084825;28;20071;-77
2021/07/08 10:33:01;;;;;;;4.43;1.90;;;;;;;22.95;65.58;102026.28;5037199;28;20032;-77
2021/07/08 10:35:37;;;;;;;3.90;1.70;;;;;;;22.87;62.16;102023.78;5059804;28;20047;-75
2021/07/08 10:38:28;;;;;;;8.38;2.05;;;;;;;22.88;61.73;102028.91;5066081;28;20145;-79
2021/07/08 10:40:55;;;;;;;5.85;1.77;;;;;;;23.06;61.68;102027.63;5045121;28;20032;-77
2021/07/08 10:43:33;;;;;;;4.40;1.80;;;;;;;23.47;60.66;102029.41;5058085;28;21335;-76
2021/07/08 10:46:02;;;;;;;5.05;1.73;;;;;;;23.77;60.76;102026.41;5048861;28;20050;-77
2021/07/08 10:48:38;;;;;;;3.25;1.60;;;;;;;24.01;58.48;102025.03;5053003;28;20040;-74
2021/07/08 10:51:07;;;;;;;6.53;1.80;;;;;;;24.17;58.29;102021.13;5062951;28;20414;-78
2021/07/08 10:53:42;;;;;;;5.82;1.73;;;;;;;24.16;57.21;102014.94;5063905;28;20058;-79
2021/07/08 10:56:13;;;;;;;5.32;2.03;;;;;;;24.30;57.46;102010.41;5057393;28;20046;-79
2021/07/08 10:58:47;;;;;;;7.80;2.00;;;;;;;24.47;56.92;102024.22;5056462;28;20050;-75
2021/07/08 11:01:21;;;;;;;5.25;2.05;;;;;;;24.45;57.04;102027.09;5071799;28;20044;-76
2021/07/08 11:03:55;;;;;;;8.43;2.00;;;;;;;24.51;58.10;102027.31;5059282;28;20130;-78
2021/07/08 11:06:25;;;;;;;8.00;2.20;;;;;;;24.62;57.84;102021.31;5046244;28;20040;-78
2021/07/08 11:08:52;;;;;;;4.22;2.00;;;;;;;24.55;59.62;102024.03;5078464;28;20420;-78
2021/07/08 11:11:23;;;;;;;8.77;2.38;;;;;;;24.58;61.71;102026.28;5068246;28;20109;-78
2021/07/08 11:13:50;;;;;;;9.25;2.50;;;;;;;24.71;62.37;102013.88;5061846;28;20040;-77
2021/07/08 11:16:39;;;;;;;4.25;2.00;;;;;;;25.14;58.75;102011.47;5051656;28;20064;-78
2021/07/08 11:19:05;;;;;;;7.10;2.47;;;;;;;25.36;59.48;102006.66;5059193;28;20035;-77
2021/07/08 11:21:49;;;;;;;11.00;2.60;;;;;;;26.01;58.60;101990.34;5043165;28;20023;-77
2021/07/08 11:24:47;;;;;;;6.80;2.33;;;;;;;26.41;56.69;101989.16;5041223;28;20040;-76
2021/07/08 11:27:32;;;;;;;7.80;3.10;;;;;;;26.33;55.88;101995.59;5032718;28;20043;-77
2021/07/08 11:30:20;;;;;;;5.80;3.00;;;;;;;25.58;59.01;101996.41;5048005;28;20036;-79
2021/07/08 11:32:49;;;;;;;9.70;2.80;;;;;;;25.34;61.30;101994.47;5079347;28;20048;-77